Huvudsida
METAR-TAF:

METAR-TAF

Flygplatser :

Comiso, Italien

latitud: 36-59-30N, longitud: 14-36-25E, höjd: 190 m

Aktuellt väderrapport

Denna rapport gjordes för 1 timme och 6 minuter sedan, klockan 02:50 UTC
Vind 3 kt från ost/nordost
Temperatur 7°C
Fuktighet 93%
Tryck 1021 hPa
Sikt 10 km eller mer

METAR: LICB 190250Z AUTO 06003KT 9999 SCT010/// 07/06 Q1021

Tid: 04:56 (03:56 UTC)

Väderprognos

Denna rapport gjordes för 7 timmar och 56 minuter sedan, klockan 20:00 UTC
Prognos gäller från 18 kl. 21 UTC till 19 kl. 06 UTC
Vind 5 kt varierande vindriktning
Sikt 10 km eller mer
Inga moln under 1 500 m eller inga cumulonimbus

TAF: LICB 182000Z 1821/1906 VRB05KT CAVOK

Aktuella väderrapporter och prognoser från 4000 flygplatser (METAR- och TAF-rapporter).

De tillgängliga stationerna syns som gula och röda prickar på kartan.

För musen över prickarna för att se namnen på stationerna.

Klicka sedan för att få väderrapporter och prognoser.

För att ändra kartan: Klicka på de gröna knapparna med ett svart kors på för att zooma in; den gröna knappen med ett streck på för att zooma ut; eller på de gröna pilarna för angränsande kartor.


METAR-TAF: